createdAt,value
2022-10-05T00:01:36.434Z,101211.52
2022-10-05T00:04:29.442Z,101207.86
2022-10-05T00:07:20.910Z,101199.34
2022-10-05T00:10:03.662Z,101203.39
2022-10-05T00:12:36.785Z,101206.95
2022-10-05T00:15:14.926Z,101216.72
2022-10-05T00:17:47.951Z,101219.82
2022-10-05T00:20:23.659Z,101223.27
2022-10-05T00:23:06.545Z,101226.97
2022-10-05T00:25:40.688Z,101233.42
2022-10-05T00:28:31.874Z,101224.77
2022-10-05T00:31:04.675Z,101232.59
2022-10-05T00:33:37.495Z,101234.76
2022-10-05T00:36:11.174Z,101229.75
2022-10-05T00:38:45.157Z,101242.88
2022-10-05T00:41:35.804Z,101240.99
2022-10-05T00:44:27.076Z,101242.17
2022-10-05T00:47:11.238Z,101238.22
2022-10-05T00:50:12.838Z,101248.59
2022-10-05T00:53:07.868Z,101252.25
2022-10-05T00:56:10.166Z,101255.69
2022-10-05T00:59:03.537Z,101259.68
2022-10-05T01:01:45.923Z,101256.14
2022-10-05T01:04:54.745Z,101263.95
2022-10-05T01:07:38.452Z,101268.43
2022-10-05T01:10:40.252Z,101262.75
2022-10-05T01:13:34.625Z,101267.98
2022-10-05T01:16:33.328Z,101269.96
2022-10-05T01:19:51.954Z,101286.54
2022-10-05T01:22:59.880Z,101280.94
2022-10-05T01:25:49.979Z,101290.24
2022-10-05T01:28:37.657Z,101290.94
2022-10-05T01:31:25.923Z,101290.86
2022-10-05T01:34:15.984Z,101297.73
2022-10-05T01:37:02.859Z,101302.02
2022-10-05T01:39:56.338Z,101299.42
2022-10-05T01:42:43.736Z,101304.79
2022-10-05T01:45:29.591Z,101304.35
2022-10-05T01:48:07.575Z,101294.50
2022-10-05T01:50:58.574Z,101312.12
2022-10-05T01:53:52.056Z,101311.06
2022-10-05T01:56:48.837Z,101319.46
2022-10-05T01:59:39.215Z,101320.05
2022-10-05T02:02:22.327Z,101318.36
2022-10-05T02:05:18.827Z,101324.58
2022-10-05T02:08:09.565Z,101325.42
2022-10-05T02:11:17.811Z,101329.18
2022-10-05T02:14:04.469Z,101332.58
2022-10-05T02:17:06.629Z,101338.13
2022-10-05T02:19:48.777Z,101330.15
2022-10-05T02:22:40.011Z,101328.30
2022-10-05T02:25:19.030Z,101342.73
2022-10-05T02:28:00.571Z,101343.24
2022-10-05T02:30:36.572Z,101347.16
2022-10-05T02:33:20.125Z,101347.61
2022-10-05T02:35:53.377Z,101353.06
2022-10-05T02:38:46.345Z,101351.83
2022-10-05T02:41:36.324Z,101347.91
2022-10-05T02:44:28.760Z,101358.16
2022-10-05T02:47:19.472Z,101360.15
2022-10-05T02:50:16.112Z,101359.89
2022-10-05T02:53:21.676Z,101367.36
2022-10-05T02:56:11.795Z,101357.29
2022-10-05T02:59:13.030Z,101371.67
2022-10-05T03:02:13.987Z,101369.59
2022-10-05T03:05:09.579Z,101366.23
2022-10-05T03:07:59.750Z,101372.92
2022-10-05T03:10:50.879Z,101379.49
2022-10-05T03:13:50.563Z,101379.94
2022-10-05T03:17:02.453Z,101373.84
2022-10-05T03:19:53.452Z,101382.05
2022-10-05T03:22:56.647Z,101381.77
2022-10-05T03:25:32.163Z,101385.83
2022-10-05T03:28:16.889Z,101386.59
2022-10-05T03:30:57.345Z,101387.92
2022-10-05T03:33:49.849Z,101381.77
2022-10-05T03:36:48.683Z,101393.05
2022-10-05T03:39:34.865Z,101388.23
2022-10-05T03:42:26.107Z,101400.90
2022-10-05T03:45:29.012Z,101400.41
2022-10-05T03:48:30.788Z,101399.77
2022-10-05T03:51:22.755Z,101404.41
2022-10-05T03:54:22.512Z,101399.09
2022-10-05T03:57:08.281Z,101409.21
2022-10-05T03:59:59.106Z,101398.21
2022-10-05T04:02:45.957Z,101411.83
2022-10-05T04:05:31.451Z,101408.68
2022-10-05T04:08:11.480Z,101405.36
2022-10-05T04:10:46.138Z,101400.11
2022-10-05T04:13:40.313Z,101408.67
2022-10-05T04:16:18.481Z,101407.67
2022-10-05T04:19:20.710Z,101411.27
2022-10-05T04:22:16.245Z,101405.11
2022-10-05T04:25:16.082Z,101410.41
2022-10-05T04:28:05.076Z,101418.45
2022-10-05T04:30:45.068Z,101414.52
2022-10-05T04:33:18.532Z,101406.73
2022-10-05T04:36:11.099Z,101419.53
2022-10-05T04:38:48.570Z,101431.55
2022-10-05T04:41:38.917Z,101424.84
2022-10-05T04:44:38.762Z,101431.22
2022-10-05T04:47:33.780Z,101441.31
2022-10-05T04:50:29.715Z,101437.68
2022-10-05T04:53:27.754Z,101443.30
2022-10-05T04:56:03.587Z,101452.83
2022-10-05T04:58:52.640Z,101461.86
2022-10-05T05:01:39.039Z,101465.89
2022-10-05T05:04:12.497Z,101453.14
2022-10-05T05:06:57.342Z,101464.77
2022-10-05T05:09:48.792Z,101462.66
2022-10-05T05:12:46.627Z,101478.20
2022-10-05T05:15:36.596Z,101468.69
2022-10-05T05:18:27.146Z,101469.39
2022-10-05T05:21:09.876Z,101479.19
2022-10-05T05:23:52.026Z,101477.24
2022-10-05T05:27:01.746Z,101477.98
2022-10-05T05:30:01.319Z,101480.02
2022-10-05T05:33:01.262Z,101484.05
2022-10-05T05:36:12.391Z,101475.14
2022-10-05T05:38:52.701Z,101470.94
2022-10-05T05:41:25.525Z,101489.27
2022-10-05T05:44:22.561Z,101482.98
2022-10-05T05:47:22.660Z,101490.51
2022-10-05T05:50:12.855Z,101492.33
2022-10-05T05:52:51.406Z,101491.50
2022-10-05T05:55:43.191Z,101494.41
2022-10-05T05:58:21.526Z,101500.52
2022-10-05T06:01:02.743Z,101504.27
2022-10-05T06:03:40.142Z,101509.52
2022-10-05T06:06:18.086Z,101511.34
2022-10-05T06:09:03.734Z,101511.77
2022-10-05T06:11:59.292Z,101512.78
2022-10-05T06:14:37.515Z,101504.42
2022-10-05T06:17:20.306Z,101519.30
2022-10-05T06:20:02.491Z,101519.82
2022-10-05T06:22:50.858Z,101520.54
2022-10-05T06:25:30.469Z,101508.64
2022-10-05T06:28:16.722Z,101509.38
2022-10-05T06:31:21.660Z,101507.85
2022-10-05T06:34:15.360Z,101515.76
2022-10-05T06:37:04.973Z,101508.98
2022-10-05T06:40:01.534Z,101515.90
2022-10-05T06:42:47.588Z,101524.26
2022-10-05T06:45:59.876Z,101523.08
2022-10-05T06:49:22.612Z,101534.19
2022-10-05T06:52:27.141Z,101536.13
2022-10-05T06:55:02.725Z,101535.02
2022-10-05T06:57:49.735Z,101531.89
2022-10-05T07:00:30.144Z,101548.88
2022-10-05T07:03:34.768Z,101551.75
2022-10-05T07:06:32.321Z,101552.05
2022-10-05T07:09:35.063Z,101550.54
2022-10-05T07:12:30.262Z,101540.80
2022-10-05T07:15:25.392Z,101554.67
2022-10-05T07:18:22.101Z,101560.62
2022-10-05T07:21:15.182Z,101559.54
2022-10-05T07:24:10.490Z,101555.34
2022-10-05T07:27:05.613Z,101556.18
2022-10-05T07:29:55.616Z,101559.37
2022-10-05T07:32:40.974Z,101561.71
2022-10-05T07:35:55.704Z,101558.70
2022-10-05T07:38:53.488Z,101561.48
2022-10-05T07:41:41.410Z,101555.91
2022-10-05T07:44:28.202Z,101565.05
2022-10-05T07:47:10.422Z,101568.94
2022-10-05T07:49:48.627Z,101568.71
2022-10-05T07:52:42.716Z,101562.43
2022-10-05T07:55:34.760Z,101565.45
2022-10-05T07:58:39.597Z,101559.13
2022-10-05T08:01:24.477Z,101565.19
2022-10-05T08:04:13.419Z,101560.48
2022-10-05T08:07:07.871Z,101554.33
2022-10-05T08:09:45.999Z,101555.34
2022-10-05T08:12:54.287Z,101556.98
2022-10-05T08:15:32.208Z,101553.66
2022-10-05T08:18:44.727Z,101557.04
2022-10-05T08:21:18.776Z,101553.00
2022-10-05T08:24:08.656Z,101544.39
2022-10-05T08:27:06.748Z,101555.72
2022-10-05T08:29:54.216Z,101551.48
2022-10-05T08:32:46.073Z,101552.48
2022-10-05T08:35:38.167Z,101544.15
2022-10-05T08:38:20.769Z,101548.10
2022-10-05T08:41:20.428Z,101553.43
2022-10-05T08:44:28.591Z,101548.50
2022-10-05T08:47:37.987Z,101544.69
2022-10-05T08:50:26.690Z,101544.32
2022-10-05T08:53:06.731Z,101545.73
2022-10-05T08:55:52.990Z,101546.65
2022-10-05T08:58:46.667Z,101536.23
2022-10-05T09:01:41.944Z,101543.00
2022-10-05T09:04:41.212Z,101537.95
2022-10-05T09:07:22.687Z,101535.65
2022-10-05T09:10:17.993Z,101548.04
2022-10-05T09:13:31.940Z,101541.99
2022-10-05T09:16:27.495Z,101543.63
2022-10-05T09:19:42.360Z,101533.69
2022-10-05T09:22:31.670Z,101535.55
2022-10-05T09:25:20.248Z,101540.23
2022-10-05T09:27:59.146Z,101552.33
2022-10-05T09:30:58.918Z,101541.30
2022-10-05T09:33:55.633Z,101537.73
2022-10-05T09:36:28.963Z,101545.77
2022-10-05T09:39:23.036Z,101551.17
2022-10-05T09:42:30.927Z,101552.64
2022-10-05T09:45:27.776Z,101563.70
2022-10-05T09:48:17.020Z,101572.20
2022-10-05T09:51:00.616Z,101568.95
2022-10-05T09:54:18.890Z,101570.06
2022-10-05T09:57:08.965Z,101571.43
2022-10-05T10:00:10.826Z,101572.84
2022-10-05T10:02:53.056Z,101561.23
2022-10-05T10:06:02.537Z,101550.36
2022-10-05T10:08:59.549Z,101554.16
2022-10-05T10:12:11.279Z,101555.10
2022-10-05T10:15:09.752Z,101552.09
2022-10-05T10:18:05.414Z,101562.60
2022-10-05T10:21:10.842Z,101551.88
2022-10-05T10:24:16.317Z,101542.68
2022-10-05T10:26:58.312Z,101527.78
2022-10-05T10:29:40.494Z,101509.55
2022-10-05T10:32:30.765Z,101513.55
2022-10-05T10:35:32.945Z,101509.80
2022-10-05T10:38:26.239Z,101509.65
2022-10-05T10:41:24.842Z,101502.40
2022-10-05T10:44:22.453Z,101513.36
2022-10-05T10:47:30.540Z,101507.89
2022-10-05T10:50:29.743Z,101502.80
2022-10-05T10:53:25.305Z,101496.73
2022-10-05T10:56:45.617Z,101510.59
2022-10-05T10:59:42.089Z,101504.95
2022-10-05T11:02:32.122Z,101492.51
2022-10-05T11:05:27.838Z,101494.20
2022-10-05T11:08:46.964Z,101484.56
2022-10-05T11:11:51.736Z,101483.34
2022-10-05T11:14:49.686Z,101486.30
2022-10-05T11:17:55.626Z,101488.92
2022-10-05T11:20:36.195Z,101497.64
2022-10-05T11:23:38.933Z,101489.94
2022-10-05T11:26:51.693Z,101485.19
2022-10-05T11:29:32.662Z,101482.18
2022-10-05T11:32:33.343Z,101485.77
2022-10-05T11:35:25.132Z,101476.59
2022-10-05T11:38:08.302Z,101465.36
2022-10-05T11:41:12.997Z,101470.42
2022-10-05T11:44:12.795Z,101465.27
2022-10-05T11:47:11.742Z,101465.33
2022-10-05T11:49:43.705Z,101465.91
2022-10-05T11:52:23.919Z,101454.43
2022-10-05T11:55:26.301Z,101451.16
2022-10-05T11:58:28.396Z,101447.54
2022-10-05T12:01:20.383Z,101446.50
2022-10-05T12:04:05.228Z,101438.50
2022-10-05T12:07:03.498Z,101440.61
2022-10-05T12:10:20.723Z,101435.59
2022-10-05T12:13:09.287Z,101437.30
2022-10-05T12:16:12.270Z,101436.52
2022-10-05T12:19:02.197Z,101428.89
2022-10-05T12:21:42.016Z,101439.54
2022-10-05T12:24:27.623Z,101435.52
2022-10-05T12:27:13.384Z,101434.14
2022-10-05T12:30:11.121Z,101432.86
2022-10-05T12:33:13.129Z,101436.94
2022-10-05T12:36:13.797Z,101427.29
2022-10-05T12:38:55.960Z,101436.79
2022-10-05T12:41:36.996Z,101433.21
2022-10-05T12:44:22.299Z,101438.50
2022-10-05T12:47:26.725Z,101440.45
2022-10-05T12:49:59.538Z,101430.80
2022-10-05T12:52:43.414Z,101425.55
2022-10-05T12:55:45.002Z,101437.40
2022-10-05T12:58:19.703Z,101441.02
2022-10-05T13:01:06.268Z,101438.07
2022-10-05T13:04:05.328Z,101435.88
2022-10-05T13:06:54.533Z,101424.78
2022-10-05T13:09:41.137Z,101431.54
2022-10-05T13:12:36.379Z,101419.34
2022-10-05T13:15:33.474Z,101407.16
2022-10-05T13:18:32.729Z,101418.63
2022-10-05T13:21:14.552Z,101416.27
2022-10-05T13:23:57.594Z,101414.67
2022-10-05T13:26:38.647Z,101422.06
2022-10-05T13:29:25.991Z,101424.23
2022-10-05T13:32:08.575Z,101421.32
2022-10-05T13:35:06.709Z,101423.33
2022-10-05T13:37:46.825Z,101428.63
2022-10-05T13:40:24.458Z,101430.59
2022-10-05T13:43:18.018Z,101426.58
2022-10-05T13:45:57.193Z,101424.77
2022-10-05T13:49:04.883Z,101426.74
2022-10-05T13:51:46.809Z,101425.20
2022-10-05T13:54:47.649Z,101431.05
2022-10-05T13:57:21.545Z,101421.82
2022-10-05T14:00:26.511Z,101423.77
2022-10-05T14:03:02.478Z,101431.73
2022-10-05T14:05:38.176Z,101423.71
2022-10-05T14:08:21.252Z,101428.83
2022-10-05T14:10:56.605Z,101431.15
2022-10-05T14:13:50.179Z,101431.27
2022-10-05T14:16:26.690Z,101435.59
2022-10-05T14:19:23.133Z,101438.90
2022-10-05T14:22:04.559Z,101429.33
2022-10-05T14:24:53.203Z,101432.13
2022-10-05T14:27:31.595Z,101429.67
2022-10-05T14:30:24.837Z,101436.77
2022-10-05T14:33:07.749Z,101434.86
2022-10-05T14:35:58.145Z,101438.96
2022-10-05T14:38:54.835Z,101435.03
2022-10-05T14:41:29.950Z,101424.70
2022-10-05T14:47:23.082Z,101441.25
2022-10-05T14:50:18.325Z,101442.80
2022-10-05T14:53:10.930Z,101433.30
2022-10-05T14:56:01.347Z,101438.02
2022-10-05T14:59:01.054Z,101434.80
2022-10-05T15:01:39.864Z,101444.23
2022-10-05T15:04:35.167Z,101443.80
2022-10-05T15:07:25.523Z,101442.61
2022-10-05T15:10:00.702Z,101445.57
2022-10-05T15:12:47.290Z,101444.44
2022-10-05T15:15:43.466Z,101449.61
2022-10-05T15:18:46.173Z,101450.63
2022-10-05T15:21:36.772Z,101448.30
2022-10-05T15:24:25.759Z,101446.65
2022-10-05T15:27:05.605Z,101455.11
2022-10-05T15:29:57.074Z,101453.91
2022-10-05T15:32:42.502Z,101458.45
2022-10-05T15:35:48.395Z,101462.19
2022-10-05T15:38:30.655Z,101468.84
2022-10-05T15:41:11.187Z,101469.43
2022-10-05T15:44:06.452Z,101473.29
2022-10-05T15:47:01.016Z,101483.86
2022-10-05T15:49:58.927Z,101477.84
2022-10-05T15:52:48.439Z,101484.86
2022-10-05T15:55:35.924Z,101490.27
2022-10-05T15:58:14.616Z,101492.84
2022-10-05T16:00:59.424Z,101497.30
2022-10-05T16:03:51.681Z,101500.14
2022-10-05T16:07:05.895Z,101495.66
2022-10-05T16:10:05.465Z,101499.77
2022-10-05T16:12:45.786Z,101499.42
2022-10-05T16:15:38.348Z,101505.00
2022-10-05T16:18:33.433Z,101498.48
2022-10-05T16:21:29.782Z,101508.62
2022-10-05T16:24:16.099Z,101498.33
2022-10-05T16:27:10.762Z,101507.73
2022-10-05T16:29:56.328Z,101503.19
2022-10-05T16:32:42.992Z,101511.26
2022-10-05T16:35:30.514Z,101511.88
2022-10-05T16:38:27.426Z,101507.63
2022-10-05T16:41:09.507Z,101500.61
2022-10-05T16:44:00.430Z,101501.19
2022-10-05T16:46:49.851Z,101503.48
2022-10-05T16:49:41.402Z,101503.84
2022-10-05T16:52:20.847Z,101505.86
2022-10-05T16:55:05.475Z,101501.73
2022-10-05T16:57:48.974Z,101497.94
2022-10-05T17:00:26.610Z,101502.95
2022-10-05T17:03:19.677Z,101496.08
2022-10-05T17:06:19.392Z,101493.37
2022-10-05T17:09:33.449Z,101506.15
2022-10-05T17:12:38.756Z,101512.02
2022-10-05T17:15:31.903Z,101516.77
2022-10-05T17:18:39.111Z,101517.27
2022-10-05T17:21:14.466Z,101520.42
2022-10-05T17:24:02.844Z,101519.18
2022-10-05T17:26:59.645Z,101518.45
2022-10-05T17:29:53.595Z,101516.95
2022-10-05T17:32:26.050Z,101510.26
2022-10-05T17:35:05.017Z,101512.14
2022-10-05T17:37:44.159Z,101519.34
2022-10-05T17:40:39.430Z,101513.64
2022-10-05T17:43:18.825Z,101511.58
2022-10-05T17:45:55.474Z,101521.89
2022-10-05T17:48:45.833Z,101520.66
2022-10-05T17:51:52.027Z,101520.84
2022-10-05T17:54:51.225Z,101511.31
2022-10-05T17:57:28.455Z,101513.28
2022-10-05T18:00:05.414Z,101518.36
2022-10-05T18:02:38.780Z,101512.44
2022-10-05T18:05:15.199Z,101513.83
2022-10-05T18:08:11.502Z,101504.77
2022-10-05T18:11:18.907Z,101511.39
2022-10-05T18:14:10.408Z,101525.18
2022-10-05T18:17:00.158Z,101523.50
2022-10-05T18:19:38.144Z,101530.82
2022-10-05T18:22:19.878Z,101521.35
2022-10-05T18:25:04.339Z,101532.34
2022-10-05T18:28:05.754Z,101536.98
2022-10-05T18:31:06.663Z,101540.36
2022-10-05T18:34:09.262Z,101544.04
2022-10-05T18:36:59.399Z,101547.80
2022-10-05T18:39:54.503Z,101538.31
2022-10-05T18:42:46.610Z,101530.61
2022-10-05T18:45:32.355Z,101539.08
2022-10-05T18:48:39.343Z,101539.38
2022-10-05T18:51:50.986Z,101547.10
2022-10-05T18:54:56.798Z,101548.02
2022-10-05T18:57:48.587Z,101542.86
2022-10-05T19:00:25.557Z,101533.68
2022-10-05T19:03:32.062Z,101546.30
2022-10-05T19:06:17.105Z,101542.91
2022-10-05T19:09:02.625Z,101551.29
2022-10-05T19:12:16.538Z,101547.66
2022-10-05T19:15:12.426Z,101542.66
2022-10-05T19:17:50.911Z,101528.33
2022-10-05T19:20:27.879Z,101532.33
2022-10-05T19:23:17.796Z,101547.39
2022-10-05T19:26:32.045Z,101551.95
2022-10-05T19:29:18.298Z,101546.85
2022-10-05T19:32:01.961Z,101550.99
2022-10-05T19:34:54.784Z,101554.07
2022-10-05T19:37:58.558Z,101559.15
2022-10-05T19:40:50.603Z,101565.52
2022-10-05T19:43:38.435Z,101567.88
2022-10-05T19:46:34.949Z,101568.42
2022-10-05T19:49:12.537Z,101558.96
2022-10-05T19:51:59.651Z,101558.04
2022-10-05T19:54:33.587Z,101561.77
2022-10-05T19:57:19.480Z,101559.98
2022-10-05T19:59:56.521Z,101550.86
2022-10-05T20:02:35.008Z,101558.25
2022-10-05T20:05:10.805Z,101562.81
2022-10-05T20:07:44.000Z,101565.08
2022-10-05T20:10:32.932Z,101566.61
2022-10-05T20:13:09.166Z,101565.46
2022-10-05T20:16:01.373Z,101564.48
2022-10-05T20:19:10.368Z,101565.47
2022-10-05T20:21:52.219Z,101565.81
2022-10-05T20:24:29.801Z,101563.98
2022-10-05T20:27:05.940Z,101562.36
2022-10-05T20:29:43.818Z,101563.91
2022-10-05T20:32:18.792Z,101559.02
2022-10-05T20:34:56.065Z,101569.25
2022-10-05T20:37:28.510Z,101562.99
2022-10-05T20:40:01.213Z,101559.09
2022-10-05T20:42:34.175Z,101555.40
2022-10-05T20:45:06.984Z,101569.00
2022-10-05T20:47:40.847Z,101568.89
2022-10-05T20:50:14.033Z,101565.67
2022-10-05T20:52:47.590Z,101562.20
2022-10-05T20:55:21.075Z,101563.85
2022-10-05T20:57:54.228Z,101566.80
2022-10-05T21:00:28.929Z,101562.14
2022-10-05T21:03:03.864Z,101550.20
2022-10-05T21:05:36.424Z,101538.94
2022-10-05T21:08:09.071Z,101544.98
2022-10-05T21:10:41.978Z,101541.85
2022-10-05T21:13:14.954Z,101547.46
2022-10-05T21:15:47.753Z,101531.86
2022-10-05T21:18:20.583Z,101546.73
2022-10-05T21:20:53.529Z,101550.56
2022-10-05T21:23:26.863Z,101547.33
2022-10-05T21:25:59.461Z,101547.58
2022-10-05T21:28:32.997Z,101553.84
2022-10-05T21:31:06.405Z,101552.02
2022-10-05T21:33:39.263Z,101550.02
2022-10-05T21:36:12.190Z,101544.82
2022-10-05T21:38:45.466Z,101540.69
2022-10-05T21:41:18.672Z,101532.63
2022-10-05T21:43:51.757Z,101535.65
2022-10-05T21:46:26.987Z,101535.60
2022-10-05T21:48:59.650Z,101537.08
2022-10-05T21:51:32.475Z,101534.11
2022-10-05T21:54:15.823Z,101527.86
2022-10-05T21:56:52.186Z,101516.34
2022-10-05T21:59:28.518Z,101522.55
2022-10-05T22:02:01.185Z,101507.31
2022-10-05T22:04:33.866Z,101505.38
2022-10-05T22:07:18.940Z,101511.50
2022-10-05T22:09:52.407Z,101513.46
2022-10-05T22:12:26.811Z,101514.22
2022-10-05T22:14:59.594Z,101513.34
2022-10-05T22:17:32.891Z,101512.14
2022-10-05T22:20:05.891Z,101499.09
2022-10-05T22:22:38.618Z,101504.59
2022-10-05T22:25:11.565Z,101503.74
2022-10-05T22:27:44.744Z,101497.09
2022-10-05T22:30:17.563Z,101487.58
2022-10-05T22:32:50.493Z,101486.80
2022-10-05T22:35:23.026Z,101480.78
2022-10-05T22:37:55.838Z,101468.90
2022-10-05T22:40:28.699Z,101479.23
2022-10-05T22:43:01.437Z,101485.49
2022-10-05T22:45:34.274Z,101493.59
2022-10-05T22:48:07.256Z,101496.34
2022-10-05T22:50:40.287Z,101494.97
2022-10-05T22:53:13.483Z,101492.52
2022-10-05T22:55:46.966Z,101488.02
2022-10-05T22:58:20.106Z,101489.63
2022-10-05T23:00:58.443Z,101496.63
2022-10-05T23:03:35.136Z,101491.21
2022-10-05T23:06:12.625Z,101490.20
2022-10-05T23:08:46.475Z,101502.09
2022-10-05T23:11:24.049Z,101502.88
2022-10-05T23:13:57.940Z,101500.72
2022-10-05T23:16:31.429Z,101499.70
2022-10-05T23:19:04.664Z,101507.11
2022-10-05T23:21:37.957Z,101511.48
2022-10-05T23:24:11.325Z,101516.53
2022-10-05T23:26:44.972Z,101518.56
2022-10-05T23:29:18.294Z,101520.39
2022-10-05T23:31:52.090Z,101519.64
2022-10-05T23:34:26.347Z,101519.93
2022-10-05T23:36:59.684Z,101528.20
2022-10-05T23:39:32.965Z,101535.23
2022-10-05T23:42:06.656Z,101527.31
2022-10-05T23:44:42.997Z,101523.70
2022-10-05T23:47:16.266Z,101518.69
2022-10-05T23:49:50.086Z,101517.17
2022-10-05T23:52:23.507Z,101518.65
2022-10-05T23:54:56.936Z,101511.09
2022-10-05T23:57:30.144Z,101496.60
